Time;durP1;ratioP1;P1;durP2;ratioP2;P2;SDS_P1;SDS_P2;PMS_P1;PMS_P2;Temp;Humidity;BMP_temperature;BMP_pressure;BME280_temperature;BME280_humidity;BME280_pressure;Samples;Min_cycle;Max_cycle;Signal;HPM_P1;HPM_P2
2021/11/02 00:00:26;;;;;;;5.10;1.88;;;;;;;9.33;nan;99113.09;5032296;28;20039;-78
2021/11/02 00:02:52;;;;;;;4.43;1.65;;;;;;;9.34;nan;99113.91;5030488;28;20561;-78
2021/11/02 00:05:18;;;;;;;4.22;1.75;;;;;;;9.31;nan;99117.75;5033747;28;20097;-78
2021/11/02 00:07:46;;;;;;;5.20;1.50;;;;;;;9.34;nan;99108.66;5032646;28;20033;-78
2021/11/02 00:10:11;;;;;;;3.92;1.60;;;;;;;9.35;nan;99112.94;5035430;28;20025;-77
2021/11/02 00:12:38;;;;;;;4.65;1.88;;;;;;;9.38;nan;99115.22;5036509;28;20030;-77
2021/11/02 00:15:05;;;;;;;3.72;1.77;;;;;;;9.32;nan;99119.41;5032603;28;20041;-77
2021/11/02 00:17:32;;;;;;;4.25;1.70;;;;;;;9.28;nan;99122.56;5032898;28;20394;-77
2021/11/02 00:20:00;;;;;;;3.22;1.88;;;;;;;9.42;nan;99120.97;5032102;28;20458;-77
2021/11/02 00:22:27;;;;;;;3.97;1.92;;;;;;;9.35;nan;99123.50;5036894;28;20178;-77
2021/11/02 00:27:24;;;;;;;4.13;2.00;;;;;;;9.21;nan;99111.09;5034126;28;20153;-77
2021/11/02 00:29:49;;;;;;;4.03;1.73;;;;;;;9.24;nan;99111.53;5033558;28;20036;-78
2021/11/02 00:32:15;;;;;;;4.43;1.80;;;;;;;9.25;nan;99104.47;5033700;28;20384;-78
2021/11/02 00:34:41;;;;;;;5.47;1.98;;;;;;;9.26;nan;99112.19;5032900;28;20065;-77
2021/11/02 00:37:06;;;;;;;4.72;1.85;;;;;;;9.19;nan;99118.34;5032585;28;20426;-77
2021/11/02 00:39:32;;;;;;;4.20;2.28;;;;;;;9.17;nan;99118.50;5034183;28;20104;-77
2021/11/02 00:41:57;;;;;;;5.13;1.80;;;;;;;9.22;nan;99118.00;5033680;28;20037;-77
2021/11/02 00:44:23;;;;;;;4.20;1.80;;;;;;;9.20;nan;99117.34;5032616;28;20095;-77
2021/11/02 00:46:55;;;;;;;4.28;2.00;;;;;;;9.16;nan;99122.16;5033321;28;20045;-77
2021/11/02 00:49:23;;;;;;;4.35;1.85;;;;;;;9.23;nan;99122.28;5031479;28;20104;-77
2021/11/02 00:51:49;;;;;;;4.25;1.88;;;;;;;9.21;nan;99119.00;5032212;28;20036;-77
2021/11/02 00:54:15;;;;;;;5.18;1.80;;;;;;;9.21;nan;99116.38;5032256;28;20398;-77
2021/11/02 00:56:41;;;;;;;4.50;1.83;;;;;;;9.18;nan;99117.53;5033336;28;20026;-78
2021/11/02 00:59:07;;;;;;;4.03;2.10;;;;;;;9.19;nan;99123.63;5031557;28;20062;-78
2021/11/02 01:01:33;;;;;;;4.15;1.88;;;;;;;9.17;nan;99115.88;5033629;28;20137;-77
2021/11/02 01:03:58;;;;;;;4.10;2.10;;;;;;;9.13;nan;99115.44;5033770;28;20064;-77
2021/11/02 01:06:25;;;;;;;5.60;2.47;;;;;;;9.08;nan;99112.50;5031588;28;20022;-77
2021/11/02 01:08:51;;;;;;;3.47;1.77;;;;;;;9.02;nan;99109.75;5033064;28;20018;-77
2021/11/02 01:11:17;;;;;;;4.57;2.20;;;;;;;9.10;nan;99113.13;5032005;28;20037;-77
2021/11/02 01:13:43;;;;;;;3.90;1.92;;;;;;;9.07;nan;99104.75;5033130;28;20398;-77
2021/11/02 01:16:08;;;;;;;4.57;2.08;;;;;;;9.05;nan;99104.94;5031719;28;20040;-77
2021/11/02 01:18:33;;;;;;;4.78;1.90;;;;;;;9.00;nan;99109.09;5033054;28;20029;-77
2021/11/02 01:20:59;;;;;;;7.43;2.90;;;;;;;8.97;nan;99104.19;5032256;28;20512;-77
2021/11/02 01:23:24;;;;;;;3.55;2.10;;;;;;;8.87;nan;99099.16;5032877;28;20025;-77
2021/11/02 01:25:50;;;;;;;4.53;2.13;;;;;;;8.87;nan;99102.59;5031884;28;20060;-77
2021/11/02 01:28:16;;;;;;;4.25;1.83;;;;;;;8.80;nan;99098.22;5031304;28;20137;-78
2021/11/02 01:30:41;;;;;;;3.95;1.92;;;;;;;8.72;nan;99093.81;5031509;28;20037;-77
2021/11/02 01:33:07;;;;;;;3.92;1.95;;;;;;;8.74;nan;99088.38;5022681;28;20032;-77
2021/11/02 01:35:32;;;;;;;2.88;1.63;;;;;;;8.70;nan;99099.25;5032064;28;20037;-78
2021/11/02 01:37:58;;;;;;;4.22;1.83;;;;;;;8.73;nan;99099.91;5024035;28;20065;-77
2021/11/02 01:40:24;;;;;;;3.50;1.80;;;;;;;8.78;nan;99101.03;5045215;28;20040;-77
2021/11/02 01:42:50;;;;;;;3.10;1.58;;;;;;;8.80;nan;99098.22;5032915;28;20042;-78
2021/11/02 01:45:17;;;;;;;3.60;1.60;;;;;;;8.81;nan;99089.31;5031953;28;20033;-77
2021/11/02 01:47:47;;;;;;;6.53;2.45;;;;;;;8.79;nan;99097.38;5032519;28;20029;-78
2021/11/02 01:50:14;;;;;;;2.83;1.63;;;;;;;8.82;nan;99097.06;5031248;28;20033;-78
2021/11/02 01:52:40;;;;;;;3.58;1.52;;;;;;;8.74;nan;99097.09;5033131;28;20036;-78
2021/11/02 01:55:08;;;;;;;4.38;1.70;;;;;;;8.69;nan;99094.16;5032072;28;20042;-78
2021/11/02 01:57:34;;;;;;;4.65;1.90;;;;;;;8.63;nan;99097.50;5032156;28;20245;-77
2021/11/02 02:00:00;;;;;;;4.68;1.88;;;;;;;8.63;nan;99098.31;5031582;28;20579;-78
2021/11/02 02:02:32;;;;;;;4.95;1.70;;;;;;;8.60;nan;99095.19;5032030;28;20064;-78
2021/11/02 02:05:25;;;;;;;4.93;1.90;;;;;;;8.53;nan;99096.88;5033406;28;20406;-78
2021/11/02 02:08:13;;;;;;;3.78;1.40;;;;;;;8.50;nan;99096.25;5037850;28;20080;-77
2021/11/02 02:10:53;;;;;;;4.35;1.80;;;;;;;8.45;nan;99101.22;5031282;28;20049;-77
2021/11/02 02:13:33;;;;;;;4.15;1.70;;;;;;;8.49;nan;99107.78;5039209;28;20037;-77
2021/11/02 02:16:14;;;;;;;2.92;1.60;;;;;;;8.42;nan;99100.75;5025576;28;20517;-77
2021/11/02 02:18:39;;;;;;;3.33;1.63;;;;;;;8.43;nan;99100.56;5036103;28;20167;-77
2021/11/02 02:21:15;;;;;;;3.78;1.80;;;;;;;8.45;nan;99092.50;5037251;28;20071;-77
2021/11/02 02:24:01;;;;;;;3.50;1.80;;;;;;;8.46;nan;99100.25;5033237;28;20510;-77
2021/11/02 02:26:54;;;;;;;4.88;1.70;;;;;;;8.49;nan;99104.34;5037432;28;20042;-77
2021/11/02 02:29:22;;;;;;;2.95;1.45;;;;;;;8.48;nan;99102.69;5037496;28;20045;-77
2021/11/02 02:31:51;;;;;;;3.55;1.83;;;;;;;8.47;nan;99099.22;5037976;28;20498;-77
2021/11/02 02:34:19;;;;;;;3.83;1.70;;;;;;;8.52;nan;99090.00;5037191;28;20060;-77
2021/11/02 02:36:48;;;;;;;4.03;1.90;;;;;;;8.53;nan;99094.25;5036939;28;20056;-77
2021/11/02 02:39:15;;;;;;;5.82;1.70;;;;;;;8.49;nan;99093.81;5037996;28;20550;-77
2021/11/02 02:41:41;;;;;;;4.07;2.05;;;;;;;8.49;nan;99086.72;5038095;28;20052;-77
2021/11/02 02:44:11;;;;;;;4.05;1.98;;;;;;;8.46;nan;99096.75;5037548;28;20394;-77
2021/11/02 02:46:39;;;;;;;4.15;1.80;;;;;;;8.49;nan;99089.34;5037615;28;20029;-77
2021/11/02 02:49:08;;;;;;;5.30;2.00;;;;;;;8.48;nan;99092.13;5037870;28;20038;-77
2021/11/02 02:51:34;;;;;;;4.20;2.25;;;;;;;8.53;nan;99091.63;5037639;28;20034;-77
2021/11/02 02:54:01;;;;;;;4.78;1.80;;;;;;;8.44;nan;99091.69;5038016;28;20514;-77
2021/11/02 02:56:29;;;;;;;3.95;2.40;;;;;;;8.54;nan;99094.09;5027828;28;20112;-77
2021/11/02 02:59:00;;;;;;;3.42;1.75;;;;;;;8.50;nan;99090.97;5037415;28;20048;-77
2021/11/02 03:01:27;;;;;;;3.15;1.65;;;;;;;8.47;nan;99090.50;5037328;28;20037;-77
2021/11/02 03:04:17;;;;;;;5.35;1.95;;;;;;;8.52;nan;99088.19;5036847;28;20113;-77
2021/11/02 03:06:45;;;;;;;3.67;1.95;;;;;;;8.53;nan;99087.16;5035328;28;20029;-77
2021/11/02 03:09:11;;;;;;;3.90;2.20;;;;;;;8.48;nan;99073.69;5036036;28;20029;-77
2021/11/02 03:11:38;;;;;;;3.88;1.95;;;;;;;8.47;nan;99083.41;5036926;28;20041;-77
2021/11/02 03:14:09;;;;;;;3.10;1.90;;;;;;;8.43;nan;99081.31;5036504;28;20398;-77
2021/11/02 03:54:27;;;;;;;4.80;2.47;;;;;;;8.48;nan;99078.97;5032874;28;20036;-77
2021/11/02 03:54:54;;;;;;;6.43;2.40;;;;;;;8.41;nan;99086.75;5045407;28;20096;-77
2021/11/02 04:23:17;;;;;;;3.92;2.30;;;;;;;8.50;nan;99090.16;5033276;28;20095;-77
2021/11/02 05:46:48;;;;;;;5.35;2.40;;;;;;;8.13;nan;99067.94;5033584;28;20089;-78
2021/11/02 05:52:23;;;;;;;5.07;2.10;;;;;;;8.04;nan;99063.72;5033658;28;20056;-78
2021/11/02 05:59:58;;;;;;;4.97;2.60;;;;;;;7.97;nan;99076.72;5033558;28;20042;-78
2021/11/02 06:30:04;;;;;;;10.18;3.58;;;;;;;8.06;nan;99086.25;5030824;28;20303;-78
2021/11/02 06:32:36;;;;;;;11.27;3.58;;;;;;;8.17;nan;99092.09;5025850;28;20375;-79
2021/11/02 06:45:53;;;;;;;5.97;2.90;;;;;;;8.15;nan;99094.94;5032950;28;20036;-79
2021/11/02 06:59:59;;;;;;;6.25;3.25;;;;;;;8.19;nan;99101.47;5025242;28;20040;-78
2021/11/02 08:48:43;;;;;;;5.30;2.60;;;;;;;9.73;nan;99115.56;5025463;28;20560;-77
2021/11/02 08:51:08;;;;;;;6.00;2.40;;;;;;;9.73;nan;99116.38;5033054;28;20128;-77
2021/11/02 08:53:34;;;;;;;6.10;2.42;;;;;;;9.70;nan;99110.63;5032115;28;20498;-78
2021/11/02 08:56:00;;;;;;;4.30;2.28;;;;;;;9.78;nan;99116.63;5032407;28;20106;-78
2021/11/02 08:58:28;;;;;;;4.65;2.47;;;;;;;9.86;nan;99110.44;5032025;28;20084;-78
2021/11/02 09:00:55;;;;;;;5.30;2.50;;;;;;;9.86;nan;99113.09;5030009;28;20033;-78
2021/11/02 09:03:29;;;;;;;4.93;2.10;;;;;;;9.81;nan;99110.16;5032072;28;20398;-78
2021/11/02 09:05:59;;;;;;;6.85;2.08;;;;;;;9.83;nan;99115.28;5027145;28;20393;-78
2021/11/02 09:08:28;;;;;;;6.27;2.30;;;;;;;9.77;nan;99109.72;5029865;28;20093;-77
2021/11/02 09:10:55;;;;;;;4.10;1.88;;;;;;;9.78;nan;99114.00;5033488;28;20109;-78
2021/11/02 09:13:23;;;;;;;4.38;2.00;;;;;;;9.71;nan;99107.00;5033017;28;20120;-78
2021/11/02 09:15:51;;;;;;;6.15;2.05;;;;;;;9.68;nan;99107.38;5030996;28;20056;-77
2021/11/02 09:18:20;;;;;;;4.63;1.80;;;;;;;9.69;nan;99099.25;5032080;28;20367;-78
2021/11/02 09:20:45;;;;;;;3.80;1.80;;;;;;;9.80;nan;99103.25;5031727;28;20124;-78
2021/11/02 09:23:11;;;;;;;6.50;2.20;;;;;;;9.89;nan;99104.81;5031659;28;20121;-78
2021/11/02 09:25:36;;;;;;;4.43;1.73;;;;;;;9.96;nan;99102.25;5031910;28;20037;-78
2021/11/02 09:28:04;;;;;;;4.75;1.80;;;;;;;9.89;nan;99098.69;5030800;28;20079;-78
2021/11/02 09:30:29;;;;;;;4.40;1.60;;;;;;;9.74;nan;99101.34;5044599;28;20041;-78
2021/11/02 09:32:56;;;;;;;3.42;1.40;;;;;;;9.55;nan;99102.69;5030490;28;20041;-78
2021/11/02 09:35:24;;;;;;;6.90;1.98;;;;;;;9.49;nan;99103.41;5031470;28;20430;-77
2021/11/02 09:38:09;;;;;;;3.95;1.70;;;;;;;9.43;nan;99098.84;5032288;28;20028;-78
2021/11/02 09:40:52;;;;;;;4.22;1.98;;;;;;;9.47;nan;99100.13;5029704;28;20501;-78
2021/11/02 09:43:42;;;;;;;5.40;1.70;;;;;;;9.45;nan;99102.13;5030181;28;20053;-77
2021/11/02 09:46:19;;;;;;;4.85;1.83;;;;;;;9.50;nan;99105.88;5030079;28;20042;-78
2021/11/02 09:49:10;;;;;;;5.75;1.80;;;;;;;9.48;nan;99107.84;5025912;28;20041;-78
2021/11/02 09:51:59;;;;;;;5.65;2.08;;;;;;;9.45;nan;99102.94;5039657;28;20116;-78
2021/11/02 09:54:59;;;;;;;5.85;1.70;;;;;;;9.50;nan;99099.78;5029309;28;20634;-78
2021/11/02 09:57:33;;;;;;;4.57;1.88;;;;;;;9.47;nan;99100.94;5015382;28;20059;-78
2021/11/02 10:00:16;;;;;;;4.63;1.77;;;;;;;9.43;nan;99106.75;5031820;28;20271;-78
2021/11/02 10:03:02;;;;;;;6.05;2.00;;;;;;;9.45;nan;99110.88;5031232;28;20079;-78
2021/11/02 10:05:45;;;;;;;5.13;2.15;;;;;;;9.45;nan;99110.06;5023624;28;20030;-78
2021/11/02 10:08:50;;;;;;;5.60;2.00;;;;;;;9.36;nan;99117.22;5030702;28;20212;-78
2021/11/02 10:11:24;;;;;;;5.50;1.73;;;;;;;9.25;nan;99107.91;4989174;28;20046;-78
2021/11/02 10:13:51;;;;;;;6.13;2.13;;;;;;;9.30;nan;99110.84;5022708;28;20049;-78
2021/11/02 10:16:41;;;;;;;7.22;2.30;;;;;;;9.27;nan;99113.00;5031102;28;20033;-78
2021/11/02 10:19:21;;;;;;;5.10;2.08;;;;;;;9.13;nan;99109.34;5032520;28;20486;-77
2021/11/02 10:22:14;;;;;;;8.05;2.58;;;;;;;9.06;nan;99113.69;5029777;28;20029;-78
2021/11/02 10:25:01;;;;;;;3.92;2.00;;;;;;;9.07;nan;99113.50;5028567;28;20071;-78
2021/11/02 10:28:04;;;;;;;4.57;2.10;;;;;;;9.04;nan;99105.94;5028287;28;20552;-75
2021/11/02 10:30:46;;;;;;;7.38;2.17;;;;;;;9.07;nan;99110.84;5026720;28;20133;-75
2021/11/02 10:33:22;;;;;;;7.45;2.42;;;;;;;9.12;nan;99112.97;5027398;28;20045;-76
2021/11/02 10:36:08;;;;;;;4.60;2.22;;;;;;;9.03;nan;99114.81;5031276;28;20042;-76
2021/11/02 10:38:57;;;;;;;4.93;2.20;;;;;;;9.06;nan;99111.88;5028254;28;20040;-76
2021/11/02 10:41:30;;;;;;;3.80;2.13;;;;;;;8.92;nan;99102.91;5032330;28;20052;-76
2021/11/02 10:44:15;;;;;;;5.35;2.35;;;;;;;8.89;nan;99103.25;5032748;28;20064;-76
2021/11/02 10:47:11;;;;;;;5.93;2.38;;;;;;;8.90;nan;99106.72;5032335;28;20238;-76
2021/11/02 10:49:39;;;;;;;4.47;2.20;;;;;;;8.88;nan;99101.59;5025392;28;20108;-76
2021/11/02 10:52:11;;;;;;;4.82;1.85;;;;;;;8.78;nan;99108.13;5028664;28;20410;-76
2021/11/02 10:54:48;;;;;;;3.25;1.45;;;;;;;8.80;nan;99109.56;5032509;28;20049;-76
2021/11/02 10:57:52;;;;;;;2.08;1.35;;;;;;;8.83;nan;99113.69;5032340;28;20045;-75
2021/11/02 11:00:20;;;;;;;5.38;1.95;;;;;;;8.80;nan;99106.94;5028929;28;20037;-76
2021/11/02 11:02:47;;;;;;;5.32;2.00;;;;;;;8.77;nan;99114.34;5032197;28;20041;-76
2021/11/02 11:05:12;;;;;;;5.70;1.95;;;;;;;8.75;nan;99114.56;5034003;28;20061;-76
2021/11/02 11:07:40;;;;;;;3.85;1.55;;;;;;;8.78;nan;99114.19;5034365;28;20502;-77
2021/11/02 11:10:08;;;;;;;2.95;1.60;;;;;;;8.76;nan;99113.56;5030376;28;20045;-76
2021/11/02 11:12:44;;;;;;;5.40;1.70;;;;;;;8.76;nan;99113.56;5033151;28;20026;-76
2021/11/02 11:15:09;;;;;;;4.30;1.98;;;;;;;8.79;nan;99117.66;5031606;28;20545;-76
2021/11/02 11:17:35;;;;;;;5.13;1.88;;;;;;;8.84;nan;99112.66;5032872;28;20068;-76
2021/11/02 11:20:11;;;;;;;5.72;2.00;;;;;;;8.80;nan;99114.03;5024357;28;20044;-75
2021/11/02 11:22:40;;;;;;;3.35;1.73;;;;;;;8.83;nan;99113.69;5030905;28;20033;-76
2021/11/02 11:25:19;;;;;;;5.25;2.03;;;;;;;8.81;nan;99115.66;5032625;28;20029;-76
2021/11/02 11:27:58;;;;;;;4.97;1.85;;;;;;;8.85;nan;99112.50;5032332;28;20038;-76
2021/11/02 11:30:35;;;;;;;3.03;1.50;;;;;;;8.74;nan;99104.19;5030992;28;20398;-75
2021/11/02 11:33:07;;;;;;;5.80;2.20;;;;;;;8.78;nan;99105.47;5031896;28;20126;-75
2021/11/02 11:35:36;;;;;;;3.45;1.52;;;;;;;8.72;nan;99109.63;5027679;28;20041;-75
2021/11/02 11:38:05;;;;;;;3.08;1.50;;;;;;;8.71;nan;99103.53;5029457;28;20034;-75
2021/11/02 11:40:33;;;;;;;3.72;1.95;;;;;;;8.69;nan;99102.06;5025537;28;20033;-75
2021/11/02 11:43:02;;;;;;;5.32;2.42;;;;;;;8.62;nan;99095.84;5030771;28;20112;-76
2021/11/02 11:45:30;;;;;;;4.07;2.05;;;;;;;8.59;nan;99099.66;5025541;28;20449;-76
2021/11/02 11:48:24;;;;;;;3.75;1.83;;;;;;;8.56;nan;99096.56;5030824;28;20390;-76
2021/11/02 11:50:49;;;;;;;4.25;1.98;;;;;;;8.62;nan;99098.50;5025107;28;20044;-76
2021/11/02 11:53:20;;;;;;;4.90;2.13;;;;;;;8.67;nan;99089.06;5030834;28;20108;-76
2021/11/02 11:55:48;;;;;;;4.88;1.90;;;;;;;8.66;nan;99090.06;5030778;28;20132;-75
2021/11/02 11:58:24;;;;;;;3.83;2.10;;;;;;;8.67;nan;99091.69;5030380;28;20021;-76
2021/11/02 12:01:06;;;;;;;4.05;2.15;;;;;;;8.79;nan;99088.66;5030932;28;20030;-75
2021/11/02 12:03:55;;;;;;;3.92;2.00;;;;;;;8.78;nan;99081.75;5031230;28;20034;-76
2021/11/02 12:06:25;;;;;;;4.72;1.90;;;;;;;8.84;nan;99088.94;5030657;28;20391;-76
2021/11/02 12:08:57;;;;;;;5.03;2.17;;;;;;;8.83;nan;99084.69;5030119;28;20044;-76
2021/11/02 12:11:23;;;;;;;;;;;;;;;8.77;nan;99085.38;5031806;28;20037;-76
2021/11/02 12:13:53;;;;;;;6.57;2.10;;;;;;;8.83;nan;99082.84;5031136;28;19924;-75
2021/11/02 12:16:27;;;;;;;3.25;2.30;;;;;;;8.93;nan;99087.91;5030582;28;20072;-76
2021/11/02 12:19:15;;;;;;;4.95;2.20;;;;;;;8.93;nan;99082.63;5031328;28;20026;-76
2021/11/02 12:21:43;;;;;;;5.60;2.50;;;;;;;8.90;nan;99085.63;5030015;28;20398;-76
2021/11/02 12:24:11;;;;;;;5.95;2.00;;;;;;;8.91;nan;99087.25;5030312;28;20021;-76
2021/11/02 12:26:45;;;;;;;3.38;1.92;;;;;;;8.88;nan;99087.59;5029585;28;20025;-76
2021/11/02 12:29:26;;;;;;;2.67;1.77;;;;;;;8.91;nan;99084.59;5031063;28;20101;-75
2021/11/02 12:32:00;;;;;;;2.90;1.77;;;;;;;8.89;nan;99089.22;5031443;28;20453;-76
2021/11/02 12:34:28;;;;;;;3.72;1.40;;;;;;;8.75;nan;99090.00;5028854;28;20034;-76
2021/11/02 12:36:58;;;;;;;1.83;1.25;;;;;;;8.65;nan;99092.84;5031023;28;20029;-75
2021/11/02 12:39:28;;;;;;;3.40;1.70;;;;;;;8.76;nan;99092.47;5030879;28;20083;-76
2021/11/02 12:41:58;;;;;;;2.38;1.63;;;;;;;8.73;nan;99097.28;5030679;28;20036;-76
2021/11/02 12:44:28;;;;;;;2.60;1.38;;;;;;;8.76;nan;99092.47;5029930;28;20056;-76
2021/11/02 12:46:54;;;;;;;2.65;1.25;;;;;;;8.59;nan;99094.38;5029586;28;20064;-76
2021/11/02 12:49:29;;;;;;;2.28;1.05;;;;;;;8.57;nan;99091.09;5029081;28;20029;-76
2021/11/02 12:52:01;;;;;;;1.70;1.10;;;;;;;8.53;nan;99096.88;5030937;28;20441;-75
2021/11/02 12:54:27;;;;;;;2.70;1.08;;;;;;;8.59;nan;99085.66;5030114;28;20482;-76
2021/11/02 12:57:01;;;;;;;1.73;0.90;;;;;;;8.50;nan;99087.53;5031062;28;20060;-76
2021/11/02 12:59:34;;;;;;;1.73;0.80;;;;;;;8.45;nan;99089.84;5031171;28;20040;-76
2021/11/02 13:02:19;;;;;;;1.83;1.05;;;;;;;8.38;nan;99094.16;5030173;28;20060;-75
2021/11/02 13:05:05;;;;;;;2.42;1.33;;;;;;;8.40;nan;99086.94;5030131;28;20037;-75
2021/11/02 13:07:39;;;;;;;2.58;1.02;;;;;;;8.43;nan;99089.22;5029211;28;20208;-76
2021/11/02 13:10:17;;;;;;;2.08;0.80;;;;;;;8.35;nan;99090.06;5030315;28;20048;-76
2021/11/02 13:12:46;;;;;;;1.38;0.85;;;;;;;8.30;nan;99087.94;5030256;28;20056;-76
2021/11/02 13:15:12;;;;;;;2.00;0.98;;;;;;;8.38;nan;99088.88;5029613;28;20069;-76
2021/11/02 13:17:42;;;;;;;2.95;1.20;;;;;;;8.39;nan;99080.81;5030211;28;20508;-76
2021/11/02 13:20:09;;;;;;;2.63;1.23;;;;;;;8.38;nan;99083.63;5029537;28;20600;-76
2021/11/02 13:22:35;;;;;;;2.00;1.00;;;;;;;8.45;nan;99089.84;5030440;28;20025;-76
2021/11/02 13:25:08;;;;;;;2.20;1.23;;;;;;;8.42;nan;99079.69;5029947;28;20068;-76
2021/11/02 13:27:37;;;;;;;3.95;1.40;;;;;;;8.45;nan;99081.97;5030298;28;20025;-76
2021/11/02 13:30:21;;;;;;;2.63;1.23;;;;;;;8.56;nan;99086.03;5028818;28;20034;-76
2021/11/02 13:32:57;;;;;;;2.15;1.42;;;;;;;8.54;nan;99083.56;5030035;28;20036;-75
2021/11/02 13:35:47;;;;;;;3.10;1.50;;;;;;;8.62;nan;99083.50;5029213;28;20045;-76
2021/11/02 13:38:19;;;;;;;2.00;1.17;;;;;;;8.62;nan;99080.84;5029456;28;20033;-75
2021/11/02 13:40:44;;;;;;;3.35;1.27;;;;;;;8.71;nan;99087.72;5029560;28;20049;-76
2021/11/02 13:43:10;;;;;;;3.38;1.40;;;;;;;8.74;nan;99088.38;5029708;28;20560;-76
2021/11/02 13:45:35;;;;;;;2.60;1.30;;;;;;;8.82;nan;99085.66;5027971;28;20029;-76
2021/11/02 13:48:02;;;;;;;2.08;1.23;;;;;;;8.90;nan;99091.69;5028291;28;20063;-76
2021/11/02 13:50:27;;;;;;;1.80;1.40;;;;;;;8.97;nan;99083.91;5029251;28;20060;-76
2021/11/02 13:52:53;;;;;;;2.10;1.35;;;;;;;9.00;nan;99088.81;5029368;28;20056;-76
2021/11/02 13:55:18;;;;;;;2.13;1.50;;;;;;;8.97;nan;99078.63;5029121;28;20562;-75
2021/11/02 13:57:44;;;;;;;4.05;1.50;;;;;;;9.07;nan;99086.31;5030606;28;20022;-76
2021/11/02 14:00:10;;;;;;;3.63;1.27;;;;;;;9.03;nan;99077.91;5029039;28;20033;-75
2021/11/02 14:02:38;;;;;;;3.25;1.42;;;;;;;9.07;nan;99079.22;5027947;28;20102;-76
2021/11/02 14:05:05;;;;;;;2.05;1.33;;;;;;;9.18;nan;99079.81;5029757;28;20079;-76
2021/11/02 14:07:32;;;;;;;2.70;1.30;;;;;;;9.27;nan;99076.91;5029573;28;20025;-76
2021/11/02 14:10:02;;;;;;;1.88;1.10;;;;;;;9.32;nan;99079.84;5028992;28;20160;-76
2021/11/02 14:12:30;;;;;;;2.08;1.38;;;;;;;9.38;nan;99086.19;5028869;28;20359;-76
2021/11/02 14:15:10;;;;;;;1.77;1.20;;;;;;;9.47;nan;99079.84;5028326;28;20494;-76
2021/11/02 14:17:40;;;;;;;1.80;0.90;;;;;;;9.48;nan;99075.38;5021953;28;20548;-76
2021/11/02 14:20:06;;;;;;;1.88;1.35;;;;;;;9.65;nan;99079.47;5028584;28;20029;-76
2021/11/02 14:22:49;;;;;;;2.30;1.17;;;;;;;9.66;nan;99080.31;5029050;28;20113;-76
2021/11/02 14:25:30;;;;;;;3.08;1.33;;;;;;;9.64;nan;99082.31;5028748;28;20037;-76
2021/11/02 14:27:56;;;;;;;2.03;1.30;;;;;;;9.75;nan;99080.06;5028933;28;20391;-76
2021/11/02 14:30:37;;;;;;;3.25;1.63;;;;;;;9.74;nan;99083.69;5028364;28;20125;-76
2021/11/02 14:33:09;;;;;;;4.38;1.98;;;;;;;9.73;nan;99092.59;5029139;28;20769;-76
2021/11/02 14:35:38;;;;;;;2.40;1.35;;;;;;;9.69;nan;99087.88;5028617;28;20502;-76
2021/11/02 14:38:10;;;;;;;3.65;1.35;;;;;;;9.74;nan;99088.13;5028941;28;20040;-79
2021/11/02 14:40:38;;;;;;;2.40;1.27;;;;;;;9.74;nan;99085.50;5028537;28;20053;-76
2021/11/02 14:43:12;;;;;;;2.53;1.23;;;;;;;9.59;nan;99087.31;5028852;28;20087;-76
2021/11/02 14:45:40;;;;;;;2.47;1.10;;;;;;;9.62;nan;99086.97;5028623;28;20037;-76
2021/11/02 14:48:33;;;;;;;2.88;1.40;;;;;;;9.55;nan;99084.22;5027972;28;20103;-75
2021/11/02 14:51:17;;;;;;;2.28;1.20;;;;;;;9.50;nan;99084.75;5027362;28;20043;-76
2021/11/02 14:53:44;;;;;;;2.08;1.52;;;;;;;9.42;nan;99087.47;5028971;28;20509;-76
2021/11/02 14:56:29;;;;;;;3.05;1.20;;;;;;;9.46;nan;99082.66;5026843;28;20092;-75
2021/11/02 14:58:59;;;;;;;1.63;1.00;;;;;;;9.38;nan;99080.09;5028956;28;20461;-75
2021/11/02 15:01:32;;;;;;;3.38;1.20;;;;;;;9.41;nan;99080.56;5028555;28;20037;-76
2021/11/02 15:04:12;;;;;;;2.40;1.10;;;;;;;9.36;nan;99082.91;5027701;28;20052;-76
2021/11/02 15:06:39;;;;;;;2.22;1.10;;;;;;;9.32;nan;99076.38;5028437;28;20033;-76
2021/11/02 15:09:15;;;;;;;1.98;1.20;;;;;;;9.31;nan;99080.00;5028099;28;20061;-76
2021/11/02 15:11:42;;;;;;;2.95;1.10;;;;;;;9.30;nan;99076.53;5023867;28;20096;-76
2021/11/02 15:14:20;;;;;;;1.92;1.00;;;;;;;9.31;nan;99080.00;5027998;28;20443;-76
2021/11/02 15:17:03;;;;;;;1.23;0.80;;;;;;;9.25;nan;99071.00;5028862;28;20521;-75
2021/11/02 15:19:31;;;;;;;1.63;0.98;;;;;;;9.27;nan;99070.78;5018988;28;20100;-76
2021/11/02 15:22:09;;;;;;;1.70;0.90;;;;;;;9.25;nan;99070.19;5028772;28;20053;-77
2021/11/02 15:24:38;;;;;;;2.75;0.90;;;;;;;9.27;nan;99073.44;5026727;28;20030;-76
2021/11/02 15:27:12;;;;;;;1.80;0.80;;;;;;;9.23;nan;99075.63;5031696;28;20295;-76
2021/11/02 15:29:44;;;;;;;1.42;0.80;;;;;;;9.14;nan;99074.06;5026687;28;20029;-76
2021/11/02 15:32:13;;;;;;;1.20;0.80;;;;;;;9.05;nan;99075.13;5030461;28;20490;-75
2021/11/02 15:34:53;;;;;;;1.45;1.00;;;;;;;8.95;nan;99085.91;5032038;28;20132;-76
2021/11/02 15:37:26;;;;;;;2.22;0.95;;;;;;;8.91;nan;99096.00;5030606;28;20044;-76
2021/11/02 15:39:54;;;;;;;4.65;1.20;;;;;;;8.86;nan;99097.50;5030982;28;20030;-76
2021/11/02 15:42:25;;;;;;;1.90;0.90;;;;;;;8.86;nan;99106.22;5031621;28;20395;-76
2021/11/02 15:44:52;;;;;;;;;;;;;;;8.91;nan;99097.78;5031902;28;20026;-76
2021/11/02 15:47:17;;;;;;;5.32;1.15;;;;;;;8.80;nan;99106.94;5031956;28;19920;-76
2021/11/02 15:49:51;;;;;;;1.42;1.00;;;;;;;8.73;nan;99105.19;5031842;28;20141;-76
2021/11/02 15:52:17;;;;;;;2.58;1.27;;;;;;;8.69;nan;99113.41;5031218;28;20033;-76
2021/11/02 15:54:46;;;;;;;2.38;1.10;;;;;;;8.69;nan;99121.31;5029709;28;20030;-76
2021/11/02 15:57:12;;;;;;;2.17;1.30;;;;;;;8.65;nan;99120.06;5031597;28;20061;-76
2021/11/02 15:59:37;;;;;;;2.53;1.75;;;;;;;8.69;nan;99120.50;5030365;28;20376;-76
2021/11/02 16:02:03;;;;;;;1.80;1.23;;;;;;;8.73;nan;99123.63;5030373;28;20040;-76
2021/11/02 16:04:29;;;;;;;4.03;1.10;;;;;;;8.67;nan;99130.41;5030067;28;20045;-76
2021/11/02 16:07:02;;;;;;;2.22;1.25;;;;;;;8.64;nan;99120.22;5030188;28;20045;-76
2021/11/02 16:09:49;;;;;;;2.17;1.10;;;;;;;8.60;nan;99119.72;5031635;28;20104;-76
2021/11/02 16:12:31;;;;;;;1.50;1.10;;;;;;;8.58;nan;99124.38;5031020;28;20037;-75
2021/11/02 16:15:09;;;;;;;2.20;1.33;;;;;;;8.62;nan;99124.84;5029636;28;20045;-76
2021/11/02 16:17:52;;;;;;;1.88;1.20;;;;;;;8.57;nan;99125.34;5030062;28;20250;-76
2021/11/02 16:20:38;;;;;;;3.88;2.90;;;;;;;8.55;nan;99122.06;5030675;28;20163;-76
2021/11/02 16:23:11;;;;;;;3.30;2.50;;;;;;;8.53;nan;99136.41;5029920;28;20029;-76
2021/11/02 16:26:11;;;;;;;3.45;2.20;;;;;;;8.57;nan;99130.63;5031095;28;20037;-76
2021/11/02 16:28:36;;;;;;;3.58;2.17;;;;;;;8.64;nan;99131.56;5030480;28;20079;-76
2021/11/02 16:31:05;;;;;;;4.97;2.03;;;;;;;8.65;nan;99132.38;5029655;28;20034;-76
2021/11/02 16:33:45;;;;;;;4.45;2.33;;;;;;;8.65;nan;99129.75;5030800;28;20041;-75
2021/11/02 16:36:21;;;;;;;3.70;2.27;;;;;;;8.65;nan;99130.59;5029838;28;20034;-76
2021/11/02 16:38:47;;;;;;;2.17;1.42;;;;;;;8.63;nan;99137.03;5031320;28;20112;-76
2021/11/02 16:41:21;;;;;;;4.80;1.95;;;;;;;8.56;nan;99136.09;5030721;28;20025;-76
2021/11/02 16:43:49;;;;;;;2.45;1.52;;;;;;;8.49;nan;99135.94;5029598;28;20037;-76
2021/11/02 16:46:33;;;;;;;4.57;1.30;;;;;;;8.39;nan;99138.75;5023472;28;20041;-76
2021/11/02 16:49:07;;;;;;;1.90;1.20;;;;;;;8.35;nan;99145.34;5029301;28;20029;-76
2021/11/02 16:51:57;;;;;;;2.08;1.17;;;;;;;8.23;nan;99144.09;5030218;28;20034;-76
2021/11/02 16:54:40;;;;;;;1.85;1.05;;;;;;;8.12;nan;99147.91;5028149;28;20049;-76
2021/11/02 16:57:16;;;;;;;1.92;1.15;;;;;;;8.02;nan;99152.56;5030823;28;20429;-76
2021/11/02 16:59:51;;;;;;;2.90;1.50;;;;;;;7.92;nan;99152.75;5030517;28;20397;-76
2021/11/02 17:02:28;;;;;;;2.28;1.40;;;;;;;7.94;nan;99160.47;5028568;28;20517;-76
2021/11/02 17:05:03;;;;;;;3.38;1.38;;;;;;;7.97;nan;99160.97;5030194;28;20039;-76
2021/11/02 17:07:36;;;;;;;2.47;1.50;;;;;;;7.94;nan;99161.31;5030348;28;20030;-76
2021/11/02 17:10:20;;;;;;;3.22;1.40;;;;;;;7.98;nan;99167.03;5028052;28;20022;-76
2021/11/02 17:12:47;;;;;;;4.07;1.58;;;;;;;8.00;nan;99170.31;5024416;28;20582;-76
2021/11/02 17:15:19;;;;;;;3.35;1.67;;;;;;;8.01;nan;99169.34;5027524;28;20042;-76
2021/11/02 17:17:45;;;;;;;2.33;1.38;;;;;;;7.95;nan;99170.00;5030418;28;20108;-76
2021/11/02 17:20:13;;;;;;;2.97;1.50;;;;;;;7.95;nan;99172.66;5029329;28;20502;-76
2021/11/02 17:22:39;;;;;;;3.50;1.60;;;;;;;8.00;nan;99178.22;5029751;28;20040;-76
2021/11/02 17:25:06;;;;;;;2.33;1.40;;;;;;;7.98;nan;99177.56;5029589;28;20500;-76
2021/11/02 17:27:32;;;;;;;2.97;1.67;;;;;;;7.99;nan;99168.69;5028804;28;20410;-76
2021/11/02 17:29:58;;;;;;;2.17;1.58;;;;;;;8.00;nan;99171.13;5029727;28;20037;-76
2021/11/02 17:32:23;;;;;;;2.97;1.70;;;;;;;7.96;nan;99180.38;5029173;28;20029;-75